createdAt,value
2019-04-20T00:00:00.806Z,20.67
2019-04-20T00:00:58.560Z,20.69
2019-04-20T00:01:58.163Z,20.65
2019-04-20T00:02:59.520Z,20.66
2019-04-20T00:03:55.971Z,20.70
2019-04-20T00:04:57.055Z,20.65
2019-04-20T00:05:57.215Z,20.69
2019-04-20T00:06:57.584Z,20.62
2019-04-20T00:07:57.046Z,20.70
2019-04-20T00:08:59.825Z,20.65
2019-04-20T00:10:03.285Z,20.69
2019-04-20T00:11:04.197Z,20.69
2019-04-20T00:12:03.845Z,20.69
2019-04-20T00:13:09.043Z,20.72
2019-04-20T00:14:04.088Z,20.63
2019-04-20T00:14:56.700Z,20.66
2019-04-20T00:15:55.901Z,20.62
2019-04-20T00:16:56.912Z,20.70
2019-04-20T00:18:00.335Z,20.69
2019-04-20T00:19:00.115Z,20.58
2019-04-20T00:19:57.832Z,20.65
2019-04-20T00:21:00.262Z,20.62
2019-04-20T00:22:01.914Z,20.63
2019-04-20T00:22:58.228Z,20.65
2019-04-20T00:23:56.588Z,20.67
2019-04-20T00:25:03.696Z,20.67
2019-04-20T00:26:06.805Z,20.67
2019-04-20T00:27:13.568Z,20.69
2019-04-20T00:28:16.314Z,20.63
2019-04-20T00:29:20.120Z,20.69
2019-04-20T00:30:22.760Z,20.69
2019-04-20T00:31:13.748Z,20.60
2019-04-20T00:32:07.754Z,20.66
2019-04-20T00:33:07.294Z,20.62
2019-04-20T00:34:07.266Z,20.63
2019-04-20T00:34:57.640Z,20.65
2019-04-20T00:35:55.484Z,20.70
2019-04-20T00:36:56.134Z,20.63
2019-04-20T00:37:57.041Z,20.66
2019-04-20T00:38:59.489Z,20.62
2019-04-20T00:39:57.776Z,20.67
2019-04-20T00:41:01.940Z,20.66
2019-04-20T00:42:02.327Z,20.59
2019-04-20T00:42:58.778Z,20.60
2019-04-20T00:43:58.639Z,20.65
2019-04-20T00:45:05.871Z,20.67
2019-04-20T00:46:01.977Z,20.65
2019-04-20T00:47:09.606Z,20.60
2019-04-20T00:48:03.275Z,20.66
2019-04-20T00:49:06.943Z,20.58
2019-04-20T00:50:13.294Z,20.60
2019-04-20T00:51:20.275Z,20.63
2019-04-20T00:52:24.234Z,20.67
2019-04-20T00:53:06.827Z,20.62
2019-04-20T00:53:58.896Z,20.59
2019-04-20T00:54:55.903Z,20.63
2019-04-20T00:55:55.281Z,20.65
2019-04-20T00:57:07.809Z,20.63
2019-04-20T00:58:03.402Z,20.62
2019-04-20T00:59:10.553Z,20.65
2019-04-20T01:00:17.627Z,20.62
2019-04-20T01:01:15.636Z,20.63
2019-04-20T01:02:14.231Z,20.67
2019-04-20T01:03:19.671Z,20.63
2019-04-20T01:04:15.068Z,20.56
2019-04-20T01:05:16.490Z,20.60
2019-04-20T01:06:17.682Z,20.58
2019-04-20T01:07:09.484Z,20.59
2019-04-20T01:08:00.160Z,20.66
2019-04-20T01:08:57.094Z,20.58
2019-04-20T01:09:56.271Z,20.62
2019-04-20T01:10:57.425Z,20.62
2019-04-20T01:11:56.594Z,20.62
2019-04-20T01:13:01.141Z,20.56
2019-04-20T01:14:02.232Z,20.58
2019-04-20T01:15:02.731Z,20.56
2019-04-20T01:16:04.727Z,20.58
2019-04-20T01:17:02.187Z,20.59
2019-04-20T01:17:55.818Z,20.59
2019-04-20T01:18:55.021Z,20.62
2019-04-20T01:19:54.994Z,20.58
2019-04-20T01:21:00.319Z,20.60
2019-04-20T01:22:04.782Z,20.50
2019-04-20T01:23:03.299Z,20.58
2019-04-20T01:23:59.935Z,20.51
2019-04-20T01:25:00.110Z,20.51
2019-04-20T01:26:04.046Z,20.59
2019-04-20T01:27:00.407Z,20.63
2019-04-20T01:28:22.280Z,20.58
2019-04-20T01:29:08.905Z,20.59
2019-04-20T01:30:07.501Z,20.52
2019-04-20T01:31:05.302Z,20.60
2019-04-20T01:32:10.455Z,20.63
2019-04-20T01:33:12.682Z,20.58
2019-04-20T01:34:03.053Z,20.59
2019-04-20T01:35:14.023Z,20.58
2019-04-20T01:36:16.375Z,20.59
2019-04-20T01:37:09.520Z,20.59
2019-04-20T01:38:16.908Z,20.55
2019-04-20T01:39:07.533Z,20.52
2019-04-20T01:40:00.401Z,20.58
2019-04-20T01:40:57.064Z,20.52
2019-04-20T01:41:56.068Z,20.56
2019-04-20T01:42:55.405Z,20.55
2019-04-20T01:43:54.850Z,20.56
2019-04-20T01:44:56.959Z,20.52
2019-04-20T01:46:01.414Z,20.60
2019-04-20T01:46:58.787Z,20.58
2019-04-20T01:47:59.449Z,20.60
2019-04-20T01:48:54.939Z,20.58
2019-04-20T01:50:05.824Z,20.55
2019-04-20T01:51:04.792Z,20.56
2019-04-20T01:52:05.130Z,20.56
2019-04-20T01:53:06.927Z,20.55
2019-04-20T01:54:14.795Z,20.56
2019-04-20T01:55:17.384Z,20.56
2019-04-20T01:56:15.508Z,20.51
2019-04-20T01:57:06.052Z,20.52
2019-04-20T01:58:14.703Z,20.56
2019-04-20T01:59:10.627Z,20.55
2019-04-20T02:00:03.590Z,20.55
2019-04-20T02:00:57.612Z,20.50
2019-04-20T02:01:59.257Z,20.51
2019-04-20T02:02:59.314Z,20.60
2019-04-20T02:03:57.519Z,20.56
2019-04-20T02:05:00.640Z,20.51
2019-04-20T02:06:02.280Z,20.62
2019-04-20T02:06:59.941Z,20.51
2019-04-20T02:07:57.146Z,20.55
2019-04-20T02:09:01.797Z,20.51
2019-04-20T02:09:59.863Z,20.55
2019-04-20T02:11:00.304Z,20.50
2019-04-20T02:12:03.525Z,20.55
2019-04-20T02:12:59.864Z,20.55
2019-04-20T02:14:01.252Z,20.56
2019-04-20T02:15:00.274Z,20.62
2019-04-20T02:15:59.006Z,20.55
2019-04-20T02:17:05.378Z,20.48
2019-04-20T02:18:07.680Z,20.52
2019-04-20T02:19:09.030Z,20.55
2019-04-20T02:20:15.602Z,20.50
2019-04-20T02:21:18.304Z,20.55
2019-04-20T02:22:11.472Z,20.55
2019-04-20T02:23:10.688Z,20.48
2019-04-20T02:24:00.566Z,20.51
2019-04-20T02:24:55.489Z,20.51
2019-04-20T02:25:54.263Z,20.55
2019-04-20T02:26:54.193Z,20.51
2019-04-20T02:28:13.564Z,20.55
2019-04-20T02:29:17.600Z,20.50
2019-04-20T02:30:21.956Z,20.51
2019-04-20T02:31:32.914Z,20.55
2019-04-20T02:32:22.494Z,20.52
2019-04-20T02:33:34.431Z,20.60
2019-04-20T02:34:32.063Z,20.52
2019-04-20T02:35:25.616Z,20.58
2019-04-20T02:36:44.245Z,20.52
2019-04-20T02:37:46.759Z,20.55
2019-04-20T02:38:40.669Z,20.56
2019-04-20T02:40:47.412Z,20.55
2019-04-20T02:41:30.038Z,20.48
2019-04-20T02:42:42.809Z,20.51
2019-04-20T02:43:44.304Z,20.55
2019-04-20T02:44:34.031Z,20.55
2019-04-20T02:46:24.515Z,20.51
2019-04-20T02:47:30.629Z,20.59
2019-04-20T02:48:21.669Z,20.59
2019-04-20T02:49:40.351Z,20.59
2019-04-20T02:50:30.186Z,20.48
2019-04-20T02:53:34.386Z,20.52
2019-04-20T02:55:38.107Z,20.65
2019-04-20T02:56:32.585Z,20.52
2019-04-20T02:57:35.982Z,20.48
2019-04-20T02:58:25.547Z,20.55
2019-04-20T03:00:19.513Z,20.50
2019-04-20T03:01:16.217Z,20.58
2019-04-20T03:02:13.274Z,20.58
2019-04-20T03:03:07.900Z,20.55
2019-04-20T03:04:00.779Z,20.52
2019-04-20T03:05:06.945Z,20.55
2019-04-20T03:06:12.479Z,20.52
2019-04-20T03:07:09.265Z,20.55
2019-04-20T03:08:13.590Z,20.52
2019-04-20T03:09:20.347Z,20.51
2019-04-20T03:10:11.325Z,20.59
2019-04-20T03:11:26.221Z,20.52
2019-04-20T03:12:17.040Z,20.48
2019-04-20T03:13:14.496Z,20.50
2019-04-20T03:14:14.832Z,20.52
2019-04-20T03:15:12.928Z,20.52
2019-04-20T03:16:14.999Z,20.52
2019-04-20T03:17:15.273Z,20.50
2019-04-20T03:18:17.718Z,20.47
2019-04-20T03:19:14.563Z,20.47
2019-04-20T03:20:18.829Z,20.48
2019-04-20T03:21:19.874Z,20.52
2019-04-20T03:22:23.608Z,20.51
2019-04-20T03:24:20.766Z,20.47
2019-04-20T03:25:17.902Z,20.51
2019-04-20T03:26:16.131Z,20.50
2019-04-20T03:27:12.390Z,20.55
2019-04-20T03:28:14.085Z,20.55
2019-04-20T03:29:11.383Z,20.55
2019-04-20T03:30:40.206Z,20.56
2019-04-20T03:32:40.323Z,20.55
2019-04-20T03:33:35.108Z,20.50
2019-04-20T03:34:48.742Z,20.50
2019-04-20T03:35:20.035Z,20.51
2019-04-20T03:36:25.308Z,20.51
2019-04-20T03:37:19.384Z,20.51
2019-04-20T03:38:16.363Z,20.50
2019-04-20T03:39:13.841Z,20.44
2019-04-20T03:40:10.281Z,20.48
2019-04-20T03:41:11.066Z,20.52
2019-04-20T03:41:56.985Z,20.50
2019-04-20T03:42:54.918Z,20.48
2019-04-20T03:44:01.015Z,20.44
2019-04-20T03:45:00.535Z,20.48
2019-04-20T03:46:01.391Z,20.41
2019-04-20T03:46:59.696Z,20.55
2019-04-20T03:48:08.287Z,20.52
2019-04-20T03:49:15.743Z,20.47
2019-04-20T03:50:19.369Z,20.48
2019-04-20T03:51:17.053Z,20.50
2019-04-20T03:52:16.352Z,20.56
2019-04-20T03:53:19.783Z,20.55
2019-04-20T03:54:12.521Z,20.52
2019-04-20T03:55:16.089Z,20.50
2019-04-20T03:56:19.505Z,20.52
2019-04-20T03:57:21.963Z,20.55
2019-04-20T03:58:17.155Z,20.48
2019-04-20T03:59:08.696Z,20.56
2019-04-20T04:00:06.307Z,20.51
2019-04-20T04:01:13.096Z,20.50
2019-04-20T04:02:29.894Z,20.47
2019-04-20T04:03:21.437Z,20.39
2019-04-20T04:04:15.012Z,20.55
2019-04-20T04:05:10.938Z,20.51
2019-04-20T04:06:06.441Z,20.56
2019-04-20T04:06:59.774Z,20.51
2019-04-20T04:08:06.197Z,20.50
2019-04-20T04:09:07.308Z,20.50
2019-04-20T04:10:10.998Z,20.50
2019-04-20T04:11:12.411Z,20.52
2019-04-20T04:12:06.610Z,20.56
2019-04-20T04:12:54.713Z,20.47
2019-04-20T04:13:54.618Z,20.47
2019-04-20T04:14:53.691Z,20.37
2019-04-20T04:15:59.352Z,20.51
2019-04-20T04:16:57.299Z,20.47
2019-04-20T04:17:59.899Z,20.52
2019-04-20T04:19:06.148Z,20.44
2019-04-20T04:20:01.696Z,20.56
2019-04-20T04:21:01.450Z,20.43
2019-04-20T04:22:11.558Z,20.47
2019-04-20T04:23:12.318Z,20.44
2019-04-20T04:24:05.579Z,20.44
2019-04-20T04:25:10.242Z,20.55
2019-04-20T04:26:08.647Z,20.55
2019-04-20T04:27:06.946Z,20.44
2019-04-20T04:28:11.400Z,20.43
2019-04-20T04:29:19.139Z,20.48
2019-04-20T04:30:13.352Z,20.51
2019-04-20T04:31:14.621Z,20.41
2019-04-20T04:32:27.071Z,20.51
2019-04-20T04:33:39.867Z,20.44
2019-04-20T04:34:07.175Z,20.40
2019-04-20T04:35:09.233Z,20.48
2019-04-20T04:36:10.073Z,20.43
2019-04-20T04:37:16.430Z,20.40
2019-04-20T04:38:15.245Z,20.40
2019-04-20T04:39:17.336Z,20.48
2019-04-20T04:40:20.981Z,20.41
2019-04-20T04:41:26.702Z,20.51
2019-04-20T04:42:20.725Z,20.40
2019-04-20T04:43:17.291Z,20.39
2019-04-20T04:44:08.607Z,20.47
2019-04-20T04:45:01.607Z,20.44
2019-04-20T04:45:53.562Z,20.50
2019-04-20T04:46:58.536Z,20.47
2019-04-20T04:47:53.722Z,20.43
2019-04-20T04:48:54.669Z,20.50
2019-04-20T04:49:59.943Z,20.47
2019-04-20T04:50:59.827Z,20.51
2019-04-20T04:52:02.234Z,20.50
2019-04-20T04:53:02.495Z,20.48
2019-04-20T04:54:02.875Z,20.52
2019-04-20T04:55:09.676Z,20.47
2019-04-20T04:57:03.380Z,20.52
2019-04-20T04:58:02.399Z,20.44
2019-04-20T04:59:02.464Z,20.44
2019-04-20T05:00:03.650Z,20.36
2019-04-20T05:01:11.827Z,20.44
2019-04-20T05:02:03.507Z,20.47
2019-04-20T05:03:22.177Z,20.48
2019-04-20T05:05:25.724Z,20.44
2019-04-20T05:06:18.822Z,20.47
2019-04-20T05:07:16.086Z,20.43
2019-04-20T05:08:13.114Z,20.52
2019-04-20T05:09:05.874Z,20.48
2019-04-20T05:10:03.552Z,20.40
2019-04-20T05:11:02.766Z,20.50
2019-04-20T05:12:07.174Z,20.43
2019-04-20T05:13:03.117Z,20.37
2019-04-20T05:14:07.347Z,20.43
2019-04-20T05:15:11.632Z,20.44
2019-04-20T05:16:15.805Z,20.43
2019-04-20T05:17:20.650Z,20.43
2019-04-20T05:18:27.248Z,20.41
2019-04-20T05:19:23.772Z,20.47
2019-04-20T05:20:23.219Z,20.47
2019-04-20T05:21:23.017Z,20.41
2019-04-20T05:22:27.611Z,20.40
2019-04-20T05:23:16.293Z,20.50
2019-04-20T05:24:22.608Z,20.52
2019-04-20T05:25:22.324Z,20.39
2019-04-20T05:26:27.182Z,20.41
2019-04-20T05:27:25.455Z,20.43
2019-04-20T05:28:19.353Z,20.40
2019-04-20T05:29:10.524Z,20.34
2019-04-20T05:30:03.622Z,20.48
2019-04-20T05:31:04.991Z,20.50
2019-04-20T05:32:08.097Z,20.51
2019-04-20T05:33:07.958Z,20.36
2019-04-20T05:34:26.312Z,20.44
2019-04-20T05:35:27.062Z,20.50
2019-04-20T05:36:24.653Z,20.41
2019-04-20T05:37:27.450Z,20.47
2019-04-20T05:38:32.701Z,20.48
2019-04-20T05:39:29.474Z,20.50
2019-04-20T05:40:26.295Z,20.51
2019-04-20T05:41:21.589Z,20.48
2019-04-20T05:42:27.841Z,20.50
2019-04-20T05:43:23.758Z,20.41
2019-04-20T05:44:17.037Z,20.48
2019-04-20T05:45:20.550Z,20.48
2019-04-20T05:46:27.866Z,20.51
2019-04-20T05:47:24.070Z,20.55
2019-04-20T05:48:19.664Z,20.43
2019-04-20T05:49:26.980Z,20.43
2019-04-20T05:50:25.183Z,20.39
2019-04-20T05:51:29.514Z,20.51
2019-04-20T05:52:42.588Z,20.50
2019-04-20T05:53:30.566Z,20.40
2019-04-20T05:54:26.826Z,20.47
2019-04-20T05:55:26.687Z,20.44
2019-04-20T05:56:26.508Z,20.44
2019-04-20T05:57:31.947Z,20.51
2019-04-20T05:58:26.303Z,20.50
2019-04-20T05:59:21.863Z,20.40
2019-04-20T06:00:27.301Z,20.47
2019-04-20T06:01:25.864Z,20.47
2019-04-20T06:02:22.850Z,20.40
2019-04-20T06:03:22.818Z,20.56
2019-04-20T06:04:38.827Z,20.37
2019-04-20T06:05:22.352Z,20.40
2019-04-20T06:06:21.784Z,20.43
2019-04-20T06:07:26.747Z,20.48
2019-04-20T06:08:32.971Z,20.50
2019-04-20T06:09:39.771Z,20.39
2019-04-20T06:10:27.381Z,20.44
2019-04-20T06:11:26.710Z,20.52
2019-04-20T06:12:25.151Z,20.37
2019-04-20T06:13:17.791Z,20.48
2019-04-20T06:14:13.262Z,20.43
2019-04-20T06:15:18.062Z,20.34
2019-04-20T06:16:18.178Z,20.37
2019-04-20T06:17:27.096Z,20.48
2019-04-20T06:18:20.274Z,20.52
2019-04-20T06:19:31.294Z,20.48
2019-04-20T06:20:28.369Z,20.41
2019-04-20T06:21:32.567Z,20.55
2019-04-20T06:22:30.839Z,20.47
2019-04-20T06:23:24.532Z,20.44
2019-04-20T06:24:37.541Z,20.44
2019-04-20T06:25:42.291Z,20.44
2019-04-20T06:26:40.170Z,20.44
2019-04-20T06:27:21.492Z,20.39
2019-04-20T06:28:20.606Z,20.44
2019-04-20T06:29:20.027Z,20.44
2019-04-20T06:30:21.695Z,20.44
2019-04-20T06:31:26.697Z,20.44
2019-04-20T06:32:27.157Z,20.50
2019-04-20T06:33:30.609Z,20.37
2019-04-20T06:34:33.456Z,20.48
2019-04-20T06:35:37.124Z,20.50
2019-04-20T06:36:29.415Z,20.44
2019-04-20T06:37:23.233Z,20.41
2019-04-20T06:38:43.169Z,20.39
2019-04-20T06:39:24.398Z,20.47
2019-04-20T06:40:37.286Z,20.51
2019-04-20T06:41:31.769Z,20.52
2019-04-20T06:42:17.594Z,20.48
2019-04-20T06:43:28.126Z,20.39
2019-04-20T06:44:30.293Z,20.43
2019-04-20T06:45:28.522Z,20.40
2019-04-20T06:46:22.701Z,20.48
2019-04-20T06:47:24.880Z,20.44
2019-04-20T06:48:32.051Z,20.44
2019-04-20T06:49:29.272Z,20.36
2019-04-20T06:50:19.355Z,20.56
2019-04-20T06:51:23.663Z,20.32
2019-04-20T06:53:34.889Z,20.48
2019-04-20T06:54:12.398Z,20.48
2019-04-20T06:55:23.464Z,20.41
2019-04-20T06:56:27.668Z,20.41
2019-04-20T06:57:29.170Z,20.43
2019-04-20T06:58:39.154Z,20.47
2019-04-20T06:59:27.767Z,20.39
2019-04-20T07:00:25.739Z,20.39
2019-04-20T07:01:19.093Z,20.48
2019-04-20T07:02:32.443Z,20.41
2019-04-20T07:03:37.726Z,20.39
2019-04-20T07:04:40.246Z,20.50
2019-04-20T07:07:24.170Z,20.37
2019-04-20T07:08:41.098Z,20.36
2019-04-20T07:09:32.435Z,20.43
2019-04-20T07:10:25.284Z,20.47
2019-04-20T07:11:23.852Z,20.40
2019-04-20T07:12:17.121Z,20.39
2019-04-20T07:13:15.424Z,20.44
2019-04-20T07:14:08.221Z,20.47
2019-04-20T07:15:19.003Z,20.34
2019-04-20T07:16:21.533Z,20.43
2019-04-20T07:17:34.234Z,20.41
2019-04-20T07:18:31.240Z,20.43
2019-04-20T07:19:25.630Z,20.41
2019-04-20T07:20:19.479Z,20.50
2019-04-20T07:21:41.713Z,20.47
2019-04-20T07:22:32.137Z,20.47
2019-04-20T07:23:29.304Z,20.40
2019-04-20T07:24:26.842Z,20.36
2019-04-20T07:25:29.309Z,20.39
2019-04-20T07:26:29.161Z,20.52
2019-04-20T07:27:24.379Z,20.41
2019-04-20T07:28:26.545Z,20.41
2019-04-20T07:29:27.488Z,20.43
2019-04-20T07:30:22.858Z,20.51
2019-04-20T07:31:23.235Z,20.50
2019-04-20T07:32:14.156Z,20.48
2019-04-20T07:33:28.514Z,20.44
2019-04-20T07:34:21.460Z,20.41
2019-04-20T07:35:24.807Z,20.40
2019-04-20T07:36:28.381Z,20.47
2019-04-20T07:37:48.308Z,20.41
2019-04-20T07:39:22.675Z,20.47
2019-04-20T07:40:23.236Z,20.50
2019-04-20T07:41:33.099Z,20.47
2019-04-20T07:42:29.105Z,20.47
2019-04-20T07:43:19.722Z,20.43
2019-04-20T07:44:31.000Z,20.44
2019-04-20T07:45:26.075Z,20.43
2019-04-20T07:46:35.184Z,20.43
2019-04-20T07:47:32.980Z,20.48
2019-04-20T07:48:21.205Z,20.48
2019-04-20T07:49:19.262Z,20.50
2019-04-20T07:50:17.487Z,20.44
2019-04-20T07:51:13.473Z,20.47
2019-04-20T07:52:01.778Z,20.47
2019-04-20T07:53:18.551Z,20.51
2019-04-20T07:54:33.358Z,20.51
2019-04-20T07:56:25.825Z,20.48
2019-04-20T07:57:21.582Z,20.56
2019-04-20T07:58:12.163Z,20.52
2019-04-20T07:59:14.301Z,20.48
2019-04-20T08:00:27.896Z,20.48
2019-04-20T08:01:33.633Z,20.47
2019-04-20T08:02:33.601Z,20.51
2019-04-20T08:03:28.168Z,20.48
2019-04-20T08:04:24.475Z,20.44
2019-04-20T08:05:19.539Z,20.48
2019-04-20T08:07:13.602Z,20.47
2019-04-20T08:08:32.669Z,20.44
2019-04-20T08:09:29.369Z,20.43
2019-04-20T08:10:34.261Z,20.48
2019-04-20T08:11:30.265Z,20.48
2019-04-20T08:12:35.575Z,20.50
2019-04-20T08:14:35.684Z,20.47
2019-04-20T08:16:43.913Z,20.52
2019-04-20T08:17:37.510Z,20.43
2019-04-20T08:18:33.308Z,20.56
2019-04-20T08:19:28.634Z,20.56
2019-04-20T08:20:25.778Z,20.44
2019-04-20T08:21:35.131Z,20.44
2019-04-20T08:22:35.462Z,20.47
2019-04-20T08:23:31.479Z,20.51
2019-04-20T08:24:27.669Z,20.56
2019-04-20T08:25:23.512Z,20.44
2019-04-20T08:26:18.226Z,20.47
2019-04-20T08:27:13.153Z,20.48
2019-04-20T08:28:18.859Z,20.48
2019-04-20T08:29:23.904Z,20.50
2019-04-20T08:30:29.182Z,20.56
2019-04-20T08:31:24.542Z,20.52
2019-04-20T08:32:31.208Z,20.52
2019-04-20T08:33:31.194Z,20.43
2019-04-20T08:34:35.388Z,20.55
2019-04-20T08:35:31.975Z,20.47
2019-04-20T08:36:33.106Z,20.56
2019-04-20T08:37:29.252Z,20.55
2019-04-20T08:39:06.826Z,20.44
2019-04-20T08:39:53.862Z,20.56
2019-04-20T08:40:36.090Z,20.50
2019-04-20T08:41:27.183Z,20.52
2019-04-20T08:42:29.912Z,20.52
2019-04-20T08:43:43.713Z,20.50
2019-04-20T08:44:46.933Z,20.59
2019-04-20T08:45:39.598Z,20.51
2019-04-20T08:46:34.961Z,20.51
2019-04-20T08:47:39.623Z,20.55
2019-04-20T08:48:36.954Z,20.48
2019-04-20T08:49:35.449Z,20.48
2019-04-20T08:50:29.948Z,20.47
2019-04-20T08:51:31.698Z,20.51
2019-04-20T08:52:47.068Z,20.50
2019-04-20T08:53:30.878Z,20.51
2019-04-20T08:54:26.164Z,20.51
2019-04-20T08:55:28.154Z,20.50
2019-04-20T08:56:22.076Z,20.52
2019-04-20T08:57:11.226Z,20.50
2019-04-20T08:58:09.536Z,20.48
2019-04-20T08:59:09.703Z,20.56
2019-04-20T09:00:09.386Z,20.51
2019-04-20T09:01:14.172Z,20.50
2019-04-20T09:02:13.798Z,20.50
2019-04-20T09:03:18.047Z,20.55
2019-04-20T09:04:15.386Z,20.52
2019-04-20T09:05:24.916Z,20.47
2019-04-20T09:06:29.389Z,20.48
2019-04-20T09:07:18.210Z,20.51
2019-04-20T09:08:17.764Z,20.55
2019-04-20T09:09:40.308Z,20.51
2019-04-20T09:10:35.748Z,20.50
2019-04-20T09:11:25.015Z,20.50
2019-04-20T09:12:27.799Z,20.48
2019-04-20T09:13:20.825Z,20.50
2019-04-20T09:14:10.583Z,20.44
2019-04-20T09:15:10.256Z,20.47
2019-04-20T09:16:09.321Z,20.51
2019-04-20T09:17:14.111Z,20.48
2019-04-20T09:18:16.936Z,20.59
2019-04-20T09:19:13.307Z,20.52
2019-04-20T09:20:16.453Z,20.56
2019-04-20T09:21:22.022Z,20.50
2019-04-20T09:22:16.174Z,20.55
2019-04-20T09:23:26.527Z,20.52
2019-04-20T09:24:34.571Z,20.52
2019-04-20T09:25:49.983Z,20.52
2019-04-20T09:26:29.696Z,20.48
2019-04-20T09:27:21.831Z,20.55
2019-04-20T09:28:20.752Z,20.55
2019-04-20T09:29:21.882Z,20.47
2019-04-20T09:30:24.880Z,20.50
2019-04-20T09:31:22.705Z,20.47
2019-04-20T09:32:29.882Z,20.47
2019-04-20T09:33:29.927Z,20.50
2019-04-20T09:34:25.990Z,20.50
2019-04-20T09:35:34.196Z,20.41
2019-04-20T09:36:24.018Z,20.55
2019-04-20T09:37:23.663Z,20.52
2019-04-20T09:38:28.782Z,20.50
2019-04-20T09:39:18.985Z,20.48
2019-04-20T09:40:32.241Z,20.55
2019-04-20T09:41:34.523Z,20.51
2019-04-20T09:42:09.618Z,20.50
2019-04-20T09:43:08.792Z,20.56
2019-04-20T09:44:08.863Z,20.50
2019-04-20T09:45:13.448Z,20.51
2019-04-20T09:46:10.268Z,20.50
2019-04-20T09:47:10.325Z,20.55
2019-04-20T09:48:15.733Z,20.55
2019-04-20T09:49:20.062Z,20.55
2019-04-20T09:50:29.324Z,20.50
2019-04-20T09:51:34.268Z,20.47
2019-04-20T09:52:25.437Z,20.52
2019-04-20T09:53:24.823Z,20.52
2019-04-20T09:54:26.771Z,20.58
2019-04-20T09:55:23.410Z,20.52
2019-04-20T09:56:25.590Z,20.58
2019-04-20T09:57:30.918Z,20.55
2019-04-20T09:58:22.539Z,20.50
2019-04-20T09:59:31.868Z,20.55
2019-04-20T10:00:23.584Z,20.55
2019-04-20T10:01:22.745Z,20.58
2019-04-20T10:02:16.836Z,20.56
2019-04-20T10:03:09.125Z,20.55
2019-04-20T10:04:08.173Z,20.58
2019-04-20T10:05:09.434Z,20.52
2019-04-20T10:06:09.616Z,20.55
2019-04-20T10:07:14.220Z,20.50
2019-04-20T10:08:10.032Z,20.55
2019-04-20T10:09:09.437Z,20.52
2019-04-20T10:10:20.278Z,20.48
2019-04-20T10:11:09.733Z,20.47
2019-04-20T10:12:08.057Z,20.55
2019-04-20T10:13:09.265Z,20.58
2019-04-20T10:14:08.450Z,20.51
2019-04-20T10:15:13.844Z,20.60
2019-04-20T10:16:09.021Z,20.58
2019-04-20T10:17:09.697Z,20.52
2019-04-20T10:18:08.321Z,20.59
2019-04-20T10:19:10.487Z,20.51
2019-04-20T10:20:10.805Z,20.59
2019-04-20T10:21:09.665Z,20.56
2019-04-20T10:22:08.603Z,20.55
2019-04-20T10:23:08.750Z,20.52
2019-04-20T10:24:08.554Z,20.55
2019-04-20T10:25:08.653Z,20.55
2019-04-20T10:26:08.895Z,20.51
2019-04-20T10:27:08.357Z,20.52
2019-04-20T10:28:07.976Z,20.51
2019-04-20T10:29:09.948Z,20.52
2019-04-20T10:30:08.208Z,20.58
2019-04-20T10:31:08.453Z,20.56
2019-04-20T10:32:12.482Z,20.55
2019-04-20T10:33:09.899Z,20.55
2019-04-20T10:34:07.831Z,20.55
2019-04-20T10:35:08.966Z,20.55
2019-04-20T10:36:07.929Z,20.62
2019-04-20T10:37:09.327Z,20.63
2019-04-20T10:38:07.796Z,20.52
2019-04-20T10:39:08.697Z,20.52
2019-04-20T10:40:08.481Z,20.56
2019-04-20T10:41:14.894Z,20.55
2019-04-20T10:42:10.128Z,20.55
2019-04-20T10:43:08.198Z,20.51
2019-04-20T10:44:09.082Z,20.59
2019-04-20T10:45:08.733Z,20.52
2019-04-20T10:46:08.936Z,20.55
2019-04-20T10:47:07.666Z,20.56
2019-04-20T10:48:08.973Z,20.52
2019-04-20T10:49:09.769Z,20.52
2019-04-20T10:50:07.615Z,20.62
2019-04-20T10:51:08.397Z,20.52
2019-04-20T10:52:07.749Z,20.52
2019-04-20T10:53:07.986Z,20.55
2019-04-20T10:54:08.763Z,20.55
2019-04-20T10:55:08.401Z,20.51
2019-04-20T10:56:07.638Z,20.50
2019-04-20T10:57:08.281Z,20.56
2019-04-20T10:58:07.561Z,20.56
2019-04-20T10:59:07.768Z,20.50
2019-04-20T11:00:07.920Z,20.52
2019-04-20T11:01:07.857Z,20.56
2019-04-20T11:02:07.924Z,20.56
2019-04-20T11:03:08.158Z,20.55
2019-04-20T11:04:08.434Z,20.52
2019-04-20T11:05:08.620Z,20.59
2019-04-20T11:06:08.866Z,20.56
2019-04-20T11:07:08.294Z,20.58
2019-04-20T11:08:08.495Z,20.60
2019-04-20T11:09:08.768Z,20.55
2019-04-20T11:10:14.632Z,20.55
2019-04-20T11:11:14.800Z,20.56
2019-04-20T11:12:08.657Z,20.55
2019-04-20T11:13:09.529Z,20.62
2019-04-20T11:14:14.513Z,20.60
2019-04-20T11:15:08.503Z,20.52
2019-04-20T11:16:08.500Z,20.58
2019-04-20T11:17:08.580Z,20.58
2019-04-20T11:18:09.148Z,20.56
2019-04-20T11:19:09.337Z,20.55
2019-04-20T11:20:07.517Z,20.56
2019-04-20T11:21:07.367Z,20.56
2019-04-20T11:22:08.454Z,20.55
2019-04-20T11:23:08.494Z,20.59
2019-04-20T11:24:08.111Z,20.51
2019-04-20T11:25:08.300Z,20.55
2019-04-20T11:26:08.530Z,20.58
2019-04-20T11:27:07.942Z,20.56
2019-04-20T11:28:08.219Z,20.55
2019-04-20T11:29:08.368Z,20.52
2019-04-20T11:30:08.051Z,20.56
2019-04-20T11:31:08.080Z,20.65
2019-04-20T11:32:07.374Z,20.50
2019-04-20T11:33:08.210Z,20.58
2019-04-20T11:34:08.043Z,20.56
2019-04-20T11:35:15.978Z,20.56
2019-04-20T11:36:09.339Z,20.52
2019-04-20T11:37:07.103Z,20.55
2019-04-20T11:38:10.785Z,20.59
2019-04-20T11:39:09.130Z,20.63
2019-04-20T11:40:07.115Z,20.51
2019-04-20T11:41:13.520Z,20.55
2019-04-20T11:42:08.062Z,20.58
2019-04-20T11:43:07.908Z,20.62
2019-04-20T11:44:07.615Z,20.62
2019-04-20T11:45:07.042Z,20.58
2019-04-20T11:46:07.069Z,20.58
2019-04-20T11:47:08.474Z,20.59
2019-04-20T11:48:07.681Z,20.60
2019-04-20T11:49:07.902Z,20.55
2019-04-20T11:50:07.390Z,20.62
2019-04-20T11:51:07.541Z,20.62
2019-04-20T11:52:07.767Z,20.52
2019-04-20T11:53:07.039Z,20.60
2019-04-20T11:54:08.253Z,20.58
2019-04-20T11:55:06.909Z,20.59
2019-04-20T11:56:14.593Z,20.51
2019-04-20T11:57:08.969Z,20.63
2019-04-20T11:58:08.071Z,20.55
2019-04-20T11:59:07.432Z,20.55
2019-04-20T12:00:06.967Z,20.60
2019-04-20T12:01:13.089Z,20.59
2019-04-20T12:02:09.394Z,20.56
2019-04-20T12:03:16.845Z,20.55
2019-04-20T12:04:20.035Z,20.58
2019-04-20T12:05:21.312Z,20.62
2019-04-20T12:06:08.623Z,20.52
2019-04-20T12:07:08.877Z,20.58
2019-04-20T12:08:07.073Z,20.56
2019-04-20T12:09:07.341Z,20.55
2019-04-20T12:10:12.040Z,20.51
2019-04-20T12:11:22.997Z,20.56
2019-04-20T12:12:21.492Z,20.50
2019-04-20T12:13:07.992Z,20.62
2019-04-20T12:14:06.982Z,20.65
2019-04-20T12:15:08.551Z,20.60
2019-04-20T12:16:07.715Z,20.60
2019-04-20T12:17:07.900Z,20.60
2019-04-20T12:18:07.482Z,20.52
2019-04-20T12:19:06.618Z,20.63
2019-04-20T12:20:07.989Z,20.60
2019-04-20T12:21:06.839Z,20.65
2019-04-20T12:22:07.639Z,20.65
2019-04-20T12:23:08.543Z,20.59
2019-04-20T12:24:06.934Z,20.59
2019-04-20T12:25:07.868Z,20.62
2019-04-20T12:26:06.872Z,20.56
2019-04-20T12:27:08.856Z,20.56
2019-04-20T12:28:07.457Z,20.56
2019-04-20T12:29:07.892Z,20.65
2019-04-20T12:30:07.801Z,20.63
2019-04-20T12:31:13.128Z,20.66
2019-04-20T12:32:09.024Z,20.59
2019-04-20T12:33:07.551Z,20.59
2019-04-20T12:34:06.671Z,20.65
2019-04-20T12:35:06.674Z,20.65
2019-04-20T12:36:08.027Z,20.62
2019-04-20T12:37:07.126Z,20.59
2019-04-20T12:38:07.343Z,20.65
2019-04-20T12:39:06.883Z,20.60
2019-04-20T12:40:07.191Z,20.59
2019-04-20T12:41:08.377Z,20.58
2019-04-20T12:42:09.373Z,20.62
2019-04-20T12:43:06.886Z,20.51
2019-04-20T12:44:07.955Z,20.58
2019-04-20T12:45:06.480Z,20.63
2019-04-20T12:46:07.695Z,20.65
2019-04-20T12:47:07.757Z,20.62
2019-04-20T12:48:07.914Z,20.52
2019-04-20T12:49:07.706Z,20.63
2019-04-20T12:50:07.656Z,20.56
2019-04-20T12:51:07.826Z,20.56
2019-04-20T12:52:06.687Z,20.65
2019-04-20T12:53:08.967Z,20.67
2019-04-20T12:54:06.916Z,20.63
2019-04-20T12:55:08.344Z,20.63
2019-04-20T12:56:06.938Z,20.65
2019-04-20T12:57:06.777Z,20.66
2019-04-20T12:58:08.264Z,20.65
2019-04-20T12:59:07.464Z,20.65
2019-04-20T13:00:07.683Z,20.60
2019-04-20T13:01:06.813Z,20.65
2019-04-20T13:02:07.085Z,20.58
2019-04-20T13:03:07.487Z,20.66
2019-04-20T13:04:08.946Z,20.62
2019-04-20T13:05:09.315Z,20.63
2019-04-20T13:06:07.877Z,20.67
2019-04-20T13:07:06.373Z,20.63
2019-04-20T13:08:07.457Z,20.67
2019-04-20T13:09:06.578Z,20.67
2019-04-20T13:10:07.754Z,20.60